Terminal Aerodrome Forecast
Issued by NWS Billings, MT

Home | Current Version | Previous Version | Text Only | Print | Product List | Glossary On
Versions: 1 2 3 4 5 6 7 8 9 10 11 12 13 14 15 16 17 18
000
FTUS45 KBYZ 261138
TAFBIL
TAF
KBIL 261138Z 2612/2712 13005KT P6SM SCT005 BKN015
     FM261700 12006KT P6SM SCT020 BKN070
     FM262100 12006KT P6SM VCTS BKN050CB
     FM270300 12006KT P6SM VCSH BKN050
     FM270900 31009KT P6SM VCSH BKN025=

USA.gov is the U.S. government's official web portal to all federal, state and local government web resources and services.